createdAt,value
2023-05-08T00:00:46.344Z,100011.84
2023-05-08T00:03:17.897Z,100021.81
2023-05-08T00:05:46.075Z,100021.00
2023-05-08T00:08:14.249Z,100020.19
2023-05-08T00:10:45.811Z,100020.19
2023-05-08T00:13:13.887Z,100015.00
2023-05-08T00:15:41.997Z,100015.81
2023-05-08T00:18:10.377Z,100008.56
2023-05-08T00:20:38.507Z,100020.41
2023-05-08T00:23:06.503Z,100015.00
2023-05-08T00:25:34.513Z,100016.06
2023-05-08T00:28:03.957Z,100021.47
2023-05-08T00:30:32.267Z,100025.81
2023-05-08T00:33:00.502Z,100027.69
2023-05-08T00:35:28.669Z,100028.50
2023-05-08T00:37:56.776Z,100028.50
2023-05-08T00:40:25.016Z,100031.22
2023-05-08T00:42:53.008Z,100023.09
2023-05-08T00:45:22.373Z,100024.19
2023-05-08T00:47:51.196Z,100025.81
2023-05-08T00:50:19.492Z,100026.88
2023-05-08T00:52:47.661Z,100025.22
2023-05-08T00:55:16.403Z,100027.91
2023-05-08T00:57:44.315Z,100023.56
2023-05-08T01:00:13.392Z,100029.78
2023-05-08T01:02:42.960Z,100021.94
2023-05-08T01:05:11.050Z,100027.34
2023-05-08T01:07:39.891Z,100025.66
2023-05-08T01:10:08.717Z,100025.66
2023-05-08T01:12:45.121Z,100021.34
2023-05-08T01:15:16.914Z,100020.50
2023-05-08T01:17:56.126Z,100022.38
2023-05-08T01:20:31.313Z,100032.34
2023-05-08T01:23:16.230Z,100043.16
2023-05-08T01:25:48.039Z,100047.75
2023-05-08T01:28:27.837Z,100053.16
2023-05-08T01:31:01.637Z,100063.97
2023-05-08T01:33:34.870Z,100082.88
2023-05-08T01:36:12.735Z,100099.31
2023-05-08T01:38:43.975Z,100103.91
2023-05-08T01:41:13.688Z,100093.53
2023-05-08T01:43:46.009Z,100098.75
2023-05-08T01:46:15.955Z,100108.72
2023-05-08T01:48:48.000Z,100118.47
2023-05-08T01:51:19.289Z,100098.94
2023-05-08T01:53:50.237Z,100087.28
2023-05-08T01:56:19.554Z,100082.72
2023-05-08T01:58:47.600Z,100091.88
2023-05-08T02:01:15.687Z,100100.00
2023-05-08T02:03:45.374Z,100096.47
2023-05-08T02:06:16.937Z,100097.28
2023-05-08T02:08:45.756Z,100095.63
2023-05-08T02:11:13.891Z,100095.63
2023-05-08T02:13:41.824Z,100101.88
2023-05-08T02:16:10.254Z,100102.69
2023-05-08T02:18:38.303Z,100105.41
2023-05-08T02:21:07.959Z,100097.28
2023-05-08T02:23:36.267Z,100092.69
2023-05-08T02:26:04.703Z,100097.28
2023-05-08T02:28:33.172Z,100097.28
2023-05-08T02:31:01.225Z,100081.06
2023-05-08T02:33:29.262Z,100097.28
2023-05-08T02:35:57.235Z,100097.28
2023-05-08T02:38:26.932Z,100102.69
2023-05-08T02:40:57.604Z,100103.31
2023-05-08T02:43:25.600Z,100097.28
2023-05-08T02:45:58.235Z,100101.63
2023-05-08T02:48:30.056Z,100108.09
2023-05-08T02:51:01.422Z,100108.09
2023-05-08T02:53:34.554Z,100110.78
2023-05-08T02:56:07.115Z,100111.84
2023-05-08T02:58:38.407Z,100104.78
2023-05-08T03:01:08.569Z,100099.38
2023-05-08T03:03:39.266Z,100103.16
2023-05-08T03:06:10.162Z,100108.56
2023-05-08T03:08:39.446Z,100112.28
2023-05-08T03:11:17.541Z,100109.59
2023-05-08T03:13:46.189Z,100108.75
2023-05-08T03:16:21.477Z,100099.84
2023-05-08T03:18:53.544Z,100100.88
2023-05-08T03:21:22.080Z,100106.28
2023-05-08T03:23:52.703Z,100111.69
2023-05-08T03:26:21.342Z,100112.75
2023-05-08T03:28:49.689Z,100123.56
2023-05-08T03:31:19.168Z,100127.31
2023-05-08T03:33:47.148Z,100139.78
2023-05-08T03:36:15.160Z,100142.47
2023-05-08T03:38:43.148Z,100154.91
2023-05-08T03:41:12.537Z,100165.72
2023-05-08T03:43:40.494Z,100173.84
2023-05-08T03:46:09.100Z,100184.63
2023-05-08T03:48:37.206Z,100195.44
2023-05-08T03:51:05.818Z,100198.16
2023-05-08T03:53:34.474Z,100200.84
2023-05-08T03:56:02.571Z,100201.72
2023-05-08T03:58:34.282Z,100206.25
2023-05-08T04:01:05.476Z,100211.66
2023-05-08T04:03:39.462Z,100200.28
2023-05-08T04:06:10.522Z,100202.97
2023-05-08T04:08:43.370Z,100209.19
2023-05-08T04:11:17.496Z,100212.94
2023-05-08T04:13:51.986Z,100220.22
2023-05-08T04:16:21.339Z,100226.69
2023-05-08T04:18:49.498Z,100226.06
2023-05-08T04:21:20.577Z,100241.25
2023-05-08T04:23:49.329Z,100234.19
2023-05-08T04:26:17.599Z,100233.38
2023-05-08T04:28:47.543Z,100229.84
2023-05-08T04:31:15.835Z,100237.94
2023-05-08T04:33:44.223Z,100237.94
2023-05-08T04:36:13.036Z,100238.97
2023-05-08T04:38:41.098Z,100241.69
2023-05-08T04:41:09.142Z,100245.22
2023-05-08T04:43:37.218Z,100248.75
2023-05-08T04:46:06.920Z,100254.16
2023-05-08T04:48:34.824Z,100253.34
2023-05-08T04:51:02.787Z,100253.34
2023-05-08T04:53:30.705Z,100256.03
2023-05-08T04:55:59.463Z,100261.19
2023-05-08T04:58:29.004Z,100259.56
2023-05-08T05:00:56.939Z,100264.16
2023-05-08T05:03:26.619Z,100263.28
2023-05-08T05:05:59.167Z,100265.41
2023-05-08T05:08:27.095Z,100275.38
2023-05-08T05:10:55.109Z,100277.47
2023-05-08T05:13:23.272Z,100273.94
2023-05-08T05:15:54.382Z,100284.75
2023-05-08T05:18:22.613Z,100274.16
2023-05-08T05:20:52.466Z,100277.91
2023-05-08T05:23:20.456Z,100270.03
2023-05-08T05:25:48.453Z,100275.44
2023-05-08T05:28:18.512Z,100271.06
2023-05-08T05:30:48.311Z,100272.13
2023-05-08T05:33:16.630Z,100275.88
2023-05-08T05:35:44.604Z,100288.34
2023-05-08T05:38:13.986Z,100288.34
2023-05-08T05:40:42.066Z,100296.44
2023-05-08T05:43:10.081Z,100295.38
2023-05-08T05:45:39.065Z,100289.16
2023-05-08T05:48:07.489Z,100296.44
2023-05-08T05:50:35.577Z,100295.38
2023-05-08T05:53:03.518Z,100304.53
2023-05-08T05:55:33.033Z,100303.72
2023-05-08T05:58:01.111Z,100309.34
2023-05-08T06:00:30.722Z,100307.47
2023-05-08T06:02:59.099Z,100294.19
2023-05-08T06:05:27.368Z,100313.09
2023-05-08T06:07:55.347Z,100314.97
2023-05-08T06:10:23.672Z,100308.75
2023-05-08T06:12:53.479Z,100314.34
2023-05-08T06:15:21.710Z,100326.22
2023-05-08T06:17:49.763Z,100326.22
2023-05-08T06:20:17.900Z,100318.31
2023-05-08T06:22:45.924Z,100337.22
2023-05-08T06:25:14.422Z,100342.63
2023-05-08T06:27:42.628Z,100336.63
2023-05-08T06:30:13.169Z,100340.13
2023-05-08T06:32:41.211Z,100348.25
2023-05-08T06:35:10.210Z,100349.28
2023-05-08T06:37:38.435Z,100361.97
2023-05-08T06:40:12.177Z,100367.16
2023-05-08T06:42:40.860Z,100367.38
2023-05-08T06:45:11.527Z,100370.09
2023-05-08T06:47:39.831Z,100375.50
2023-05-08T06:50:08.574Z,100361.97
2023-05-08T06:52:36.621Z,100373.81
2023-05-08T06:55:04.891Z,100379.81
2023-05-08T06:57:32.897Z,100379.00
2023-05-08T07:00:00.980Z,100377.38
2023-05-08T07:02:30.428Z,100386.28
2023-05-08T07:04:58.755Z,100387.13
2023-05-08T07:07:26.858Z,100399.78
2023-05-08T07:09:54.936Z,100391.06
2023-05-08T07:12:23.247Z,100389.00
2023-05-08T07:14:51.534Z,100392.72
2023-05-08T07:17:19.566Z,100393.56
2023-05-08T07:19:51.741Z,100403.53
2023-05-08T07:22:20.159Z,100395.66
2023-05-08T07:24:48.223Z,100398.13
2023-05-08T07:27:16.806Z,100407.28
2023-05-08T07:29:44.845Z,100405.63
2023-05-08T07:32:12.954Z,100404.78
2023-05-08T07:34:41.068Z,100411.03
2023-05-08T07:37:10.648Z,100411.03
2023-05-08T07:39:38.745Z,100414.75
2023-05-08T07:42:07.003Z,100417.25
2023-05-08T07:44:46.970Z,100423.47
2023-05-08T07:47:21.654Z,100418.09
2023-05-08T07:49:49.719Z,100420.78
2023-05-08T07:52:19.192Z,100419.72
2023-05-08T07:54:47.294Z,100424.31
2023-05-08T07:57:15.229Z,100418.09
2023-05-08T07:59:43.342Z,100419.72
2023-05-08T08:02:11.402Z,100435.94
2023-05-08T08:04:39.548Z,100428.06
2023-05-08T08:07:07.650Z,100425.38
2023-05-08T08:09:37.036Z,100430.75
2023-05-08T08:12:05.118Z,100436.38
2023-05-08T08:14:33.144Z,100438.25
2023-05-08T08:17:01.502Z,100436.38
2023-05-08T08:19:49.911Z,100437.19
2023-05-08T08:22:17.891Z,100440.13
2023-05-08T08:24:47.412Z,100442.81
2023-05-08T08:27:15.754Z,100439.31
2023-05-08T08:29:43.851Z,100439.31
2023-05-08T08:32:11.917Z,100444.72
2023-05-08T08:34:39.985Z,100448.22
2023-05-08T08:37:08.060Z,100445.53
2023-05-08T08:39:36.033Z,100451.75
2023-05-08T08:42:05.432Z,100459.03
2023-05-08T08:44:33.514Z,100450.94
2023-05-08T08:47:01.609Z,100455.28
2023-05-08T08:49:31.646Z,100462.56
2023-05-08T08:52:00.932Z,100468.78
2023-05-08T08:54:30.282Z,100461.72
2023-05-08T08:56:58.260Z,100459.03
2023-05-08T08:59:27.863Z,100457.38
2023-05-08T09:01:57.796Z,100463.63
2023-05-08T09:04:27.428Z,100467.13
2023-05-08T09:06:55.842Z,100460.09
2023-05-08T09:09:23.729Z,100458.41
2023-05-08T09:11:52.219Z,100460.09
2023-05-08T09:14:20.305Z,100463.81
2023-05-08T09:16:49.753Z,100457.78
2023-05-08T09:19:17.810Z,100465.91
2023-05-08T09:21:45.821Z,100467.56
2023-05-08T09:24:14.098Z,100470.47
2023-05-08T09:26:42.797Z,100467.78
2023-05-08T09:29:14.555Z,100470.47
2023-05-08T09:31:43.420Z,100468.59
2023-05-08T09:34:13.782Z,100461.75
2023-05-08T09:36:43.925Z,100472.97
2023-05-08T09:39:12.717Z,100478.38
2023-05-08T09:41:41.276Z,100482.72
2023-05-08T09:44:09.525Z,100485.41
2023-05-08T09:46:37.483Z,100491.66
2023-05-08T09:49:05.553Z,100490.81
2023-05-08T09:51:34.914Z,100497.91
2023-05-08T09:54:05.900Z,100497.91
2023-05-08T09:56:37.574Z,100492.50
2023-05-08T09:59:06.610Z,100492.50
2023-05-08T10:01:35.674Z,100501.44
2023-05-08T10:04:05.886Z,100501.63
2023-05-08T10:06:36.612Z,100504.31
2023-05-08T10:09:08.556Z,100501.63
2023-05-08T10:11:36.625Z,100506.22
2023-05-08T10:14:04.579Z,100502.06
2023-05-08T10:16:32.760Z,100505.38
2023-05-08T10:19:02.242Z,100502.69
2023-05-08T10:21:30.430Z,100509.97
2023-05-08T10:23:59.889Z,100503.72
2023-05-08T10:26:31.699Z,100504.75
2023-05-08T10:29:00.119Z,100497.72
2023-05-08T10:31:29.351Z,100510.16
2023-05-08T10:33:57.652Z,100505.81
2023-05-08T10:36:26.904Z,100506.63
2023-05-08T10:38:55.594Z,100506.84
2023-05-08T10:41:24.962Z,100511.22
2023-05-08T10:43:52.967Z,100512.88
2023-05-08T10:46:23.859Z,100502.06
2023-05-08T10:48:55.405Z,100498.31
2023-05-08T10:51:25.106Z,100501.00
2023-05-08T10:53:55.088Z,100502.06
2023-05-08T10:56:28.160Z,100503.72
2023-05-08T10:58:59.057Z,100512.88
2023-05-08T11:01:27.226Z,100514.50
2023-05-08T11:03:56.713Z,100512.88
2023-05-08T11:06:52.762Z,100507.47
2023-05-08T11:09:22.587Z,100510.97
2023-05-08T11:12:10.066Z,100503.72
2023-05-08T11:14:39.571Z,100508.28
2023-05-08T11:17:08.366Z,100500.81
2023-05-08T11:19:37.303Z,100500.81
2023-05-08T11:22:21.849Z,100497.91
2023-05-08T11:24:51.268Z,100489.56
2023-05-08T11:27:29.568Z,100479.59
2023-05-08T11:30:21.754Z,100477.72
2023-05-08T11:33:14.566Z,100481.03
2023-05-08T11:35:43.797Z,100486.22
2023-05-08T11:38:19.364Z,100479.16
2023-05-08T11:40:49.069Z,100492.66
2023-05-08T11:43:56.158Z,100480.84
2023-05-08T11:46:25.820Z,100492.47
2023-05-08T11:49:00.587Z,100491.41
2023-05-08T11:51:31.376Z,100492.25
2023-05-08T11:53:59.422Z,100487.44
2023-05-08T11:56:27.561Z,100493.28
2023-05-08T11:59:03.556Z,100484.94
2023-05-08T12:01:33.547Z,100481.41
2023-05-08T12:04:02.770Z,100487.19
2023-05-08T12:06:31.966Z,100493.22
2023-05-08T12:09:00.225Z,100494.91
2023-05-08T12:11:28.426Z,100491.13
2023-05-08T12:13:56.379Z,100481.97
2023-05-08T12:16:27.529Z,100481.97
2023-05-08T12:18:57.888Z,100471.16
2023-05-08T12:21:25.838Z,100469.09
2023-05-08T12:23:55.441Z,100464.50
2023-05-08T12:26:23.506Z,100467.81
2023-05-08T12:28:55.752Z,100456.19
2023-05-08T12:31:23.984Z,100457.03
2023-05-08T12:33:52.060Z,100442.47
2023-05-08T12:36:21.429Z,100438.72
2023-05-08T12:38:49.492Z,100440.59
2023-05-08T12:41:17.454Z,100439.53
2023-05-08T12:43:50.809Z,100439.09
2023-05-08T12:46:18.731Z,100440.78
2023-05-08T12:48:46.781Z,100441.38
2023-05-08T12:51:14.715Z,100448.44
2023-05-08T12:53:44.121Z,100442.81
2023-05-08T12:56:12.488Z,100440.09
2023-05-08T12:58:40.446Z,100439.91
2023-05-08T13:01:10.209Z,100427.00
2023-05-08T13:03:38.683Z,100428.66
2023-05-08T13:06:06.982Z,100422.41
2023-05-08T13:08:35.716Z,100419.50
2023-05-08T13:11:05.546Z,100413.25
2023-05-08T13:13:35.782Z,100420.38
2023-05-08T13:16:04.423Z,100411.19
2023-05-08T13:18:32.605Z,100414.53
2023-05-08T13:21:03.849Z,100415.34
2023-05-08T13:23:31.976Z,100407.03
2023-05-08T13:25:59.983Z,100414.91
2023-05-08T13:28:29.452Z,100416.56
2023-05-08T13:30:57.411Z,100414.06
2023-05-08T13:33:25.387Z,100407.03
2023-05-08T13:35:53.412Z,100411.56
2023-05-08T13:38:21.331Z,100409.94
2023-05-08T13:40:49.285Z,100414.28
2023-05-08T13:43:20.082Z,100407.22
2023-05-08T13:45:49.497Z,100408.88
2023-05-08T13:48:17.431Z,100407.22
2023-05-08T13:50:45.318Z,100407.22
2023-05-08T13:53:13.238Z,100399.94
2023-05-08T13:55:42.355Z,100401.63
2023-05-08T13:58:10.406Z,100404.09
2023-05-08T14:00:38.677Z,100404.09
2023-05-08T14:03:08.446Z,100402.44
2023-05-08T14:05:36.553Z,100403.06
2023-05-08T14:08:04.692Z,100401.19
2023-05-08T14:10:32.672Z,100392.81
2023-05-08T14:13:00.747Z,100397.19
2023-05-08T14:15:36.418Z,100392.81
2023-05-08T14:18:05.922Z,100382.25
2023-05-08T14:20:35.564Z,100385.78
2023-05-08T14:23:03.518Z,100385.78
2023-05-08T14:25:31.427Z,100384.97
2023-05-08T14:27:59.425Z,100394.94
2023-05-08T14:30:27.446Z,100391.63
2023-05-08T14:32:55.448Z,100392.44
2023-05-08T14:35:23.460Z,100391.63
2023-05-08T14:37:52.908Z,100393.28
2023-05-08T14:40:22.061Z,100400.56
2023-05-08T14:42:51.857Z,100388.69
2023-05-08T14:45:20.108Z,100387.66
2023-05-08T14:47:48.181Z,100394.06
2023-05-08T14:50:16.290Z,100390.69
2023-05-08T14:52:44.209Z,100381.72
2023-05-08T14:55:20.593Z,100380.72
2023-05-08T14:57:49.006Z,100391.06
2023-05-08T15:00:17.974Z,100389.44
2023-05-08T15:02:46.267Z,100394.00
2023-05-08T15:05:19.730Z,100397.75
2023-05-08T15:07:50.092Z,100395.88
2023-05-08T15:10:19.547Z,100400.25
2023-05-08T15:12:47.600Z,100392.13
2023-05-08T15:15:16.640Z,100393.16
2023-05-08T15:17:44.717Z,100394.22
2023-05-08T15:20:12.891Z,100390.91
2023-05-08T15:22:40.856Z,100394.66
2023-05-08T15:25:09.248Z,100404.44
2023-05-08T15:27:38.680Z,100402.78
2023-05-08T15:30:07.856Z,100399.03
2023-05-08T15:32:36.150Z,100404.44
2023-05-08T15:35:04.414Z,100394.44
2023-05-08T15:37:33.592Z,100383.41
2023-05-08T15:40:01.608Z,100388.00
2023-05-08T15:42:29.579Z,100383.41
2023-05-08T15:44:59.013Z,100379.03
2023-05-08T15:47:27.862Z,100392.34
2023-05-08T15:49:55.791Z,100398.56
2023-05-08T15:52:23.808Z,100398.13
2023-05-08T15:54:51.729Z,100397.09
2023-05-08T15:57:19.645Z,100395.22
2023-05-08T15:59:47.912Z,100396.03
2023-05-08T16:02:17.412Z,100389.00
2023-05-08T16:04:45.372Z,100395.41
2023-05-08T16:07:13.302Z,100407.28
2023-05-08T16:09:42.063Z,100406.47
2023-05-08T16:12:10.016Z,100409.19
2023-05-08T16:14:37.927Z,100402.94
2023-05-08T16:17:08.212Z,100406.47
2023-05-08T16:19:39.967Z,100414.78
2023-05-08T16:22:07.950Z,100403.38
2023-05-08T16:24:35.954Z,100410.66
2023-05-08T16:27:04.164Z,100412.53
2023-05-08T16:29:32.099Z,100414.41
2023-05-08T16:32:00.159Z,100412.78
2023-05-08T16:34:28.076Z,100420.03
2023-05-08T16:36:58.558Z,100423.78
2023-05-08T16:39:26.533Z,100416.50
2023-05-08T16:41:54.477Z,100415.69
2023-05-08T16:44:22.429Z,100419.44
2023-05-08T16:46:50.419Z,100408.63
2023-05-08T16:49:18.402Z,100419.44
2023-05-08T16:51:46.313Z,100432.97
2023-05-08T16:54:15.593Z,100430.25
2023-05-08T16:56:43.486Z,100426.72
2023-05-08T16:59:11.385Z,100430.25
2023-05-08T17:01:39.432Z,100432.97
2023-05-08T17:04:07.399Z,100435.06
2023-05-08T17:06:35.353Z,100442.34
2023-05-08T17:09:03.276Z,100443.16
2023-05-08T17:11:32.612Z,100451.28
2023-05-08T17:14:00.513Z,100452.28
2023-05-08T17:16:28.492Z,100443.38
2023-05-08T17:18:56.455Z,100440.03
2023-05-08T17:21:24.539Z,100450.84
2023-05-08T17:23:52.632Z,100461.09
2023-05-08T17:26:21.875Z,100475.44
2023-05-08T17:28:51.236Z,100471.03
2023-05-08T17:31:19.373Z,100468.56
2023-05-08T17:33:47.461Z,100475.00
2023-05-08T17:36:15.430Z,100473.16
2023-05-08T17:38:46.019Z,100476.88
2023-05-08T17:41:14.046Z,100479.81
2023-05-08T17:43:42.091Z,100478.13
2023-05-08T17:46:11.748Z,100483.53
2023-05-08T17:48:39.826Z,100489.16
2023-05-08T17:51:07.724Z,100490.19
2023-05-08T17:53:35.588Z,100479.38
2023-05-08T17:56:03.555Z,100480.63
2023-05-08T17:58:31.620Z,100490.19
2023-05-08T18:00:59.735Z,100491.25
2023-05-08T18:03:29.139Z,100501.00
2023-05-08T18:05:57.200Z,100503.13
2023-05-08T18:08:25.120Z,100508.53
2023-05-08T18:10:53.111Z,100513.94
2023-05-08T18:13:21.093Z,100512.25
2023-05-08T18:15:49.258Z,100517.66
2023-05-08T18:18:17.292Z,100524.13
2023-05-08T18:20:47.325Z,100531.41
2023-05-08T18:23:15.341Z,100528.91
2023-05-08T18:25:43.924Z,100541.34
2023-05-08T18:28:11.920Z,100545.13
2023-05-08T18:30:40.343Z,100548.88
2023-05-08T18:33:08.533Z,100547.19
2023-05-08T18:35:36.436Z,100555.53
2023-05-08T18:38:05.787Z,100553.66
2023-05-08T18:40:33.790Z,100549.31
2023-05-08T18:43:01.736Z,100556.56
2023-05-08T18:45:29.836Z,100557.63
2023-05-08T18:47:57.928Z,100559.50
2023-05-08T18:50:26.201Z,100550.56
2023-05-08T18:52:54.138Z,100553.47
2023-05-08T18:55:25.328Z,100554.28
2023-05-08T18:57:56.095Z,100565.09
2023-05-08T19:00:24.231Z,100556.19
2023-05-08T19:02:52.436Z,100560.75
2023-05-08T19:05:20.579Z,100563.47
2023-05-08T19:07:48.605Z,100564.28
2023-05-08T19:10:16.801Z,100564.28
2023-05-08T19:12:47.213Z,100567.19
2023-05-08T19:15:15.433Z,100561.78
2023-05-08T19:17:43.621Z,100565.34
2023-05-08T19:20:13.324Z,100571.75
2023-05-08T19:22:41.494Z,100572.59
2023-05-08T19:25:09.929Z,100571.75
2023-05-08T19:27:38.009Z,100571.75
2023-05-08T19:30:08.813Z,100570.94
2023-05-08T19:32:36.756Z,100575.72
2023-05-08T19:35:05.063Z,100566.78
2023-05-08T19:37:35.379Z,100565.97
2023-05-08T19:40:03.899Z,100563.47
2023-05-08T19:42:32.143Z,100572.63
2023-05-08T19:45:00.237Z,100568.25
2023-05-08T19:47:29.734Z,100582.81
2023-05-08T19:49:57.674Z,100582.81
2023-05-08T19:52:25.685Z,100585.50
2023-05-08T19:54:53.725Z,100575.75
2023-05-08T19:57:22.021Z,100583.88
2023-05-08T19:59:50.054Z,100574.94
2023-05-08T20:02:18.058Z,100573.50
2023-05-08T20:05:14.585Z,100576.19
2023-05-08T20:07:35.465Z,100573.50
2023-05-08T20:10:03.445Z,100575.56
2023-05-08T20:12:31.412Z,100564.97
2023-05-08T20:14:59.414Z,100554.78
2023-05-08T20:17:27.451Z,100558.53
2023-05-08T20:19:56.935Z,100563.09
2023-05-08T20:22:25.103Z,100568.50
2023-05-08T20:24:53.169Z,100568.72
2023-05-08T20:27:22.724Z,100565.19
2023-05-08T20:29:50.580Z,100560.81
2023-05-08T20:32:19.304Z,100555.41
2023-05-08T20:34:47.336Z,100547.31
2023-05-08T20:37:17.567Z,100556.47
2023-05-08T20:39:45.580Z,100555.63
2023-05-08T20:42:13.536Z,100554.78
2023-05-08T20:44:41.570Z,100563.94
2023-05-08T20:47:09.475Z,100572.25
2023-05-08T20:49:37.358Z,100566.84
2023-05-08T20:52:05.648Z,100574.75
2023-05-08T20:54:34.997Z,100559.78
2023-05-08T20:57:03.064Z,100569.16
2023-05-08T20:59:31.067Z,100567.28
2023-05-08T21:01:59.042Z,100576.41
2023-05-08T21:04:27.336Z,100579.09
2023-05-08T21:06:55.425Z,100582.66
2023-05-08T21:09:23.372Z,100581.81
2023-05-08T21:11:52.737Z,100579.09
2023-05-08T21:14:20.759Z,100578.28
2023-05-08T21:16:49.145Z,100579.09
2023-05-08T21:19:17.721Z,100574.56
2023-05-08T21:21:45.823Z,100579.94
2023-05-08T21:24:13.710Z,100581.81
2023-05-08T21:26:41.804Z,100584.50
2023-05-08T21:29:11.738Z,100590.94
2023-05-08T21:31:39.801Z,100583.69
2023-05-08T21:34:08.116Z,100584.72
2023-05-08T21:36:36.058Z,100586.59
2023-05-08T21:39:04.141Z,100590.31
2023-05-08T21:41:33.064Z,100580.78
2023-05-08T21:44:01.071Z,100584.34
2023-05-08T21:46:30.576Z,100581.00
2023-05-08T21:48:58.625Z,100575.59
2023-05-08T21:51:26.572Z,100569.38
2023-05-08T21:53:54.468Z,100573.34
2023-05-08T21:56:22.846Z,100576.84
2023-05-08T21:58:51.118Z,100570.41
2023-05-08T22:01:19.405Z,100573.34
2023-05-08T22:03:49.014Z,100574.97
2023-05-08T22:06:17.109Z,100578.09
2023-05-08T22:08:45.032Z,100572.72
2023-05-08T22:11:12.985Z,100569.19
2023-05-08T22:13:40.898Z,100563.56
2023-05-08T22:16:09.371Z,100569.78
2023-05-08T22:18:37.361Z,100565.44
2023-05-08T22:21:06.786Z,100569.78
2023-05-08T22:23:34.812Z,100572.47
2023-05-08T22:26:03.146Z,100563.56
2023-05-08T22:28:31.229Z,100565.44
2023-05-08T22:30:59.235Z,100567.31
2023-05-08T22:33:27.178Z,100567.31
2023-05-08T22:35:55.080Z,100572.72
2023-05-08T22:38:24.505Z,100571.03
2023-05-08T22:40:52.716Z,100573.72
2023-05-08T22:43:20.814Z,100574.78
2023-05-08T22:45:48.880Z,100577.47
2023-05-08T22:48:16.998Z,100578.53
2023-05-08T22:50:45.225Z,100576.84
2023-05-08T22:53:13.257Z,100570.63
2023-05-08T22:55:42.577Z,100571.88
2023-05-08T22:58:10.501Z,100583.50
2023-05-08T23:00:38.488Z,100579.34
2023-05-08T23:03:06.761Z,100576.88
2023-05-08T23:05:53.099Z,100574.38
2023-05-08T23:08:22.198Z,100573.38
2023-05-08T23:10:51.531Z,100574.38
2023-05-08T23:13:19.627Z,100574.81
2023-05-08T23:15:47.704Z,100575.63
2023-05-08T23:18:15.809Z,100575.84
2023-05-08T23:20:43.817Z,100575.63
2023-05-08T23:23:11.843Z,100583.53
2023-05-08T23:25:39.962Z,100569.22
2023-05-08T23:28:09.333Z,100576.47
2023-05-08T23:30:37.399Z,100580.00
2023-05-08T23:33:07.047Z,100569.41
2023-05-08T23:35:35.244Z,100572.94
2023-05-08T23:38:05.872Z,100571.47
2023-05-08T23:40:33.900Z,100569.41
2023-05-08T23:43:01.943Z,100558.59
2023-05-08T23:45:31.478Z,100570.47
2023-05-08T23:47:59.705Z,100573.97
2023-05-08T23:50:27.797Z,100570.47
2023-05-08T23:52:55.804Z,100558.81
2023-05-08T23:55:23.901Z,100558.81
2023-05-08T23:57:51.965Z,100553.63
